Terminal Aerodrome Forecast
Issued by NWS

Home | Current Version | Previous Version | Graphics & Text | Print | Product List | Glossary On
Versions: 1 2 3 4 5 6 7 8 9 10 11 12 13 14 15 16
000
FTUS43 KICT 221720
TAFSLN
TAF
KSLN 221720Z 2218/2318 15011KT P6SM VCSH SCT010 OVC015
     FM230200 14008KT 5SM -DZ BR OVC008
     FM231500 15011KT 5SM -SHRA VCTS SCT006 OVC010CB=

USA.gov is the U.S. government's official web portal to all federal, state and local government web resources and services.